sensor_id;sensor_type;location;lat;lon;timestamp;P1;durP1;ratioP1;P2;durP2;ratioP2
14613;SDS011;7393;51.446;6.800;2023-05-07T00:02:15;5.40;;;4.20;;
14613;SDS011;7393;51.446;6.800;2023-05-07T00:04:42;6.77;;;4.30;;
14613;SDS011;7393;51.446;6.800;2023-05-07T00:07:10;8.17;;;4.40;;
14613;SDS011;7393;51.446;6.800;2023-05-07T00:09:37;6.20;;;4.37;;
14613;SDS011;7393;51.446;6.800;2023-05-07T00:12:04;4.30;;;3.80;;
14613;SDS011;7393;51.446;6.800;2023-05-07T00:14:31;5.80;;;4.17;;
14613;SDS011;7393;51.446;6.800;2023-05-07T00:16:57;5.67;;;4.27;;
14613;SDS011;7393;51.446;6.800;2023-05-07T00:19:24;4.60;;;4.07;;
14613;SDS011;7393;51.446;6.800;2023-05-07T00:21:51;5.33;;;3.97;;
14613;SDS011;7393;51.446;6.800;2023-05-07T00:24:20;5.70;;;4.60;;
14613;SDS011;7393;51.446;6.800;2023-05-07T00:26:47;5.23;;;4.40;;
14613;SDS011;7393;51.446;6.800;2023-05-07T00:29:14;5.00;;;3.80;;
14613;SDS011;7393;51.446;6.800;2023-05-07T00:31:41;4.53;;;4.10;;
14613;SDS011;7393;51.446;6.800;2023-05-07T00:34:08;5.17;;;4.53;;
14613;SDS011;7393;51.446;6.800;2023-05-07T00:36:35;6.63;;;4.30;;
14613;SDS011;7393;51.446;6.800;2023-05-07T00:39:02;4.83;;;4.20;;
14613;SDS011;7393;51.446;6.800;2023-05-07T00:41:30;5.13;;;4.43;;
14613;SDS011;7393;51.446;6.800;2023-05-07T00:43:57;6.10;;;4.00;;
14613;SDS011;7393;51.446;6.800;2023-05-07T00:46:23;5.43;;;4.40;;
14613;SDS011;7393;51.446;6.800;2023-05-07T00:48:50;6.83;;;4.73;;
14613;SDS011;7393;51.446;6.800;2023-05-07T00:51:18;6.47;;;4.70;;
14613;SDS011;7393;51.446;6.800;2023-05-07T00:53:45;7.87;;;5.23;;
14613;SDS011;7393;51.446;6.800;2023-05-07T00:56:12;6.67;;;4.83;;
14613;SDS011;7393;51.446;6.800;2023-05-07T00:58:41;5.17;;;4.67;;
14613;SDS011;7393;51.446;6.800;2023-05-07T01:01:08;5.97;;;4.80;;
14613;SDS011;7393;51.446;6.800;2023-05-07T01:03:35;5.73;;;5.10;;
14613;SDS011;7393;51.446;6.800;2023-05-07T01:06:01;7.00;;;4.47;;
14613;SDS011;7393;51.446;6.800;2023-05-07T01:08:29;7.27;;;4.77;;
14613;SDS011;7393;51.446;6.800;2023-05-07T01:10:57;5.33;;;4.70;;
14613;SDS011;7393;51.446;6.800;2023-05-07T01:13:24;5.33;;;4.60;;
14613;SDS011;7393;51.446;6.800;2023-05-07T01:15:53;9.67;;;5.10;;
14613;SDS011;7393;51.446;6.800;2023-05-07T01:18:20;6.00;;;5.17;;
14613;SDS011;7393;51.446;6.800;2023-05-07T01:20:47;8.20;;;5.73;;
14613;SDS011;7393;51.446;6.800;2023-05-07T01:23:15;6.10;;;5.27;;
14613;SDS011;7393;51.446;6.800;2023-05-07T01:25:44;6.53;;;5.60;;
14613;SDS011;7393;51.446;6.800;2023-05-07T01:28:17;6.10;;;5.50;;
14613;SDS011;7393;51.446;6.800;2023-05-07T01:30:44;8.03;;;5.80;;
14613;SDS011;7393;51.446;6.800;2023-05-07T01:33:15;6.60;;;5.83;;
14613;SDS011;7393;51.446;6.800;2023-05-07T01:35:47;7.67;;;6.07;;
14613;SDS011;7393;51.446;6.800;2023-05-07T01:38:18;8.20;;;6.27;;
14613;SDS011;7393;51.446;6.800;2023-05-07T01:40:47;7.00;;;6.23;;
14613;SDS011;7393;51.446;6.800;2023-05-07T01:43:14;6.97;;;6.00;;
14613;SDS011;7393;51.446;6.800;2023-05-07T01:45:41;9.30;;;6.67;;
14613;SDS011;7393;51.446;6.800;2023-05-07T01:48:09;8.67;;;6.77;;
14613;SDS011;7393;51.446;6.800;2023-05-07T01:50:37;7.97;;;6.43;;
14613;SDS011;7393;51.446;6.800;2023-05-07T01:53:04;8.47;;;6.90;;
14613;SDS011;7393;51.446;6.800;2023-05-07T01:55:32;6.40;;;5.70;;
14613;SDS011;7393;51.446;6.800;2023-05-07T01:57:59;7.80;;;6.43;;
14613;SDS011;7393;51.446;6.800;2023-05-07T02:00:26;7.87;;;6.00;;
14613;SDS011;7393;51.446;6.800;2023-05-07T02:02:52;7.50;;;6.73;;
14613;SDS011;7393;51.446;6.800;2023-05-07T02:05:19;7.27;;;6.57;;
14613;SDS011;7393;51.446;6.800;2023-05-07T02:07:46;7.63;;;6.83;;
14613;SDS011;7393;51.446;6.800;2023-05-07T02:10:13;8.13;;;6.50;;
14613;SDS011;7393;51.446;6.800;2023-05-07T02:12:41;7.50;;;6.70;;
14613;SDS011;7393;51.446;6.800;2023-05-07T02:15:09;7.63;;;6.27;;
14613;SDS011;7393;51.446;6.800;2023-05-07T02:17:38;7.70;;;6.77;;
14613;SDS011;7393;51.446;6.800;2023-05-07T02:20:24;6.83;;;6.13;;
14613;SDS011;7393;51.446;6.800;2023-05-07T02:22:50;7.53;;;6.50;;
14613;SDS011;7393;51.446;6.800;2023-05-07T02:25:17;7.40;;;6.30;;
14613;SDS011;7393;51.446;6.800;2023-05-07T02:27:45;9.73;;;6.57;;
14613;SDS011;7393;51.446;6.800;2023-05-07T02:30:13;9.33;;;7.00;;
14613;SDS011;7393;51.446;6.800;2023-05-07T02:32:40;7.17;;;6.47;;
14613;SDS011;7393;51.446;6.800;2023-05-07T02:35:07;8.03;;;7.03;;
14613;SDS011;7393;51.446;6.800;2023-05-07T02:37:34;9.60;;;6.93;;
14613;SDS011;7393;51.446;6.800;2023-05-07T02:40:01;7.90;;;7.07;;
14613;SDS011;7393;51.446;6.800;2023-05-07T02:42:29;9.20;;;7.20;;
14613;SDS011;7393;51.446;6.800;2023-05-07T02:44:57;8.37;;;7.47;;
14613;SDS011;7393;51.446;6.800;2023-05-07T02:47:24;8.10;;;6.57;;
14613;SDS011;7393;51.446;6.800;2023-05-07T02:49:52;9.30;;;7.20;;
14613;SDS011;7393;51.446;6.800;2023-05-07T02:52:18;9.83;;;7.30;;
14613;SDS011;7393;51.446;6.800;2023-05-07T02:54:45;7.93;;;6.83;;
14613;SDS011;7393;51.446;6.800;2023-05-07T02:57:12;8.17;;;6.60;;
14613;SDS011;7393;51.446;6.800;2023-05-07T02:59:39;7.80;;;7.00;;
14613;SDS011;7393;51.446;6.800;2023-05-07T03:02:09;7.73;;;6.93;;
14613;SDS011;7393;51.446;6.800;2023-05-07T03:04:36;9.70;;;7.43;;
14613;SDS011;7393;51.446;6.800;2023-05-07T03:07:03;7.70;;;7.00;;
14613;SDS011;7393;51.446;6.800;2023-05-07T03:09:29;8.77;;;7.87;;
14613;SDS011;7393;51.446;6.800;2023-05-07T03:11:56;8.37;;;7.47;;
14613;SDS011;7393;51.446;6.800;2023-05-07T03:14:23;8.97;;;7.50;;
14613;SDS011;7393;51.446;6.800;2023-05-07T03:16:50;10.20;;;6.80;;
14613;SDS011;7393;51.446;6.800;2023-05-07T03:19:18;10.97;;;8.17;;
14613;SDS011;7393;51.446;6.800;2023-05-07T03:21:45;7.90;;;7.10;;
14613;SDS011;7393;51.446;6.800;2023-05-07T03:24:12;8.87;;;7.97;;
14613;SDS011;7393;51.446;6.800;2023-05-07T03:26:39;9.77;;;7.57;;
14613;SDS011;7393;51.446;6.800;2023-05-07T03:29:05;9.50;;;8.00;;
14613;SDS011;7393;51.446;6.800;2023-05-07T03:31:32;8.80;;;7.73;;
14613;SDS011;7393;51.446;6.800;2023-05-07T03:33:59;9.03;;;8.03;;
14613;SDS011;7393;51.446;6.800;2023-05-07T03:36:27;8.87;;;7.33;;
14613;SDS011;7393;51.446;6.800;2023-05-07T03:38:54;9.43;;;8.43;;
14613;SDS011;7393;51.446;6.800;2023-05-07T03:41:20;9.30;;;7.83;;
14613;SDS011;7393;51.446;6.800;2023-05-07T03:43:47;10.70;;;9.00;;
14613;SDS011;7393;51.446;6.800;2023-05-07T03:46:14;9.30;;;8.03;;
14613;SDS011;7393;51.446;6.800;2023-05-07T03:48:41;8.87;;;7.97;;
14613;SDS011;7393;51.446;6.800;2023-05-07T03:51:08;9.63;;;8.43;;
14613;SDS011;7393;51.446;6.800;2023-05-07T03:53:36;9.93;;;8.43;;
14613;SDS011;7393;51.446;6.800;2023-05-07T03:56:03;10.83;;;9.57;;
14613;SDS011;7393;51.446;6.800;2023-05-07T03:58:30;10.97;;;9.17;;
14613;SDS011;7393;51.446;6.800;2023-05-07T04:00:56;8.87;;;7.97;;
14613;SDS011;7393;51.446;6.800;2023-05-07T04:03:23;9.93;;;8.93;;
14613;SDS011;7393;51.446;6.800;2023-05-07T04:05:50;9.80;;;8.80;;
14613;SDS011;7393;51.446;6.800;2023-05-07T04:08:17;10.33;;;9.13;;
14613;SDS011;7393;51.446;6.800;2023-05-07T04:10:45;10.80;;;9.30;;
14613;SDS011;7393;51.446;6.800;2023-05-07T04:13:12;11.20;;;9.47;;
14613;SDS011;7393;51.446;6.800;2023-05-07T04:15:39;10.83;;;9.23;;
14613;SDS011;7393;51.446;6.800;2023-05-07T04:18:06;9.63;;;8.73;;
14613;SDS011;7393;51.446;6.800;2023-05-07T04:20:33;10.37;;;9.10;;
14613;SDS011;7393;51.446;6.800;2023-05-07T04:23:01;11.50;;;9.67;;
14613;SDS011;7393;51.446;6.800;2023-05-07T04:25:28;11.30;;;9.83;;
14613;SDS011;7393;51.446;6.800;2023-05-07T04:27:57;12.20;;;10.73;;
14613;SDS011;7393;51.446;6.800;2023-05-07T04:30:23;14.83;;;11.50;;
14613;SDS011;7393;51.446;6.800;2023-05-07T04:32:50;12.03;;;10.60;;
14613;SDS011;7393;51.446;6.800;2023-05-07T04:35:17;13.10;;;11.70;;
14613;SDS011;7393;51.446;6.800;2023-05-07T04:37:44;12.90;;;10.80;;
14613;SDS011;7393;51.446;6.800;2023-05-07T04:40:11;12.87;;;11.20;;
14613;SDS011;7393;51.446;6.800;2023-05-07T04:42:38;12.47;;;11.17;;
14613;SDS011;7393;51.446;6.800;2023-05-07T04:45:07;11.93;;;10.67;;
14613;SDS011;7393;51.446;6.800;2023-05-07T04:47:35;14.43;;;11.77;;
14613;SDS011;7393;51.446;6.800;2023-05-07T04:50:02;11.87;;;10.77;;
14613;SDS011;7393;51.446;6.800;2023-05-07T04:52:29;11.90;;;10.70;;
14613;SDS011;7393;51.446;6.800;2023-05-07T04:54:56;12.57;;;10.97;;
14613;SDS011;7393;51.446;6.800;2023-05-07T04:57:25;12.63;;;11.23;;
14613;SDS011;7393;51.446;6.800;2023-05-07T04:59:51;13.43;;;10.60;;
14613;SDS011;7393;51.446;6.800;2023-05-07T05:02:20;12.37;;;11.07;;
14613;SDS011;7393;51.446;6.800;2023-05-07T05:04:47;12.23;;;11.03;;
14613;SDS011;7393;51.446;6.800;2023-05-07T05:07:13;12.73;;;11.37;;
14613;SDS011;7393;51.446;6.800;2023-05-07T05:09:40;13.13;;;11.83;;
14613;SDS011;7393;51.446;6.800;2023-05-07T05:12:07;12.77;;;11.13;;
14613;SDS011;7393;51.446;6.800;2023-05-07T05:14:34;12.57;;;11.30;;
14613;SDS011;7393;51.446;6.800;2023-05-07T05:17:00;12.90;;;11.43;;
14613;SDS011;7393;51.446;6.800;2023-05-07T05:19:28;15.67;;;12.83;;
14613;SDS011;7393;51.446;6.800;2023-05-07T05:21:55;20.20;;;13.50;;
14613;SDS011;7393;51.446;6.800;2023-05-07T05:24:22;12.97;;;11.60;;
14613;SDS011;7393;51.446;6.800;2023-05-07T05:26:49;17.83;;;13.00;;
14613;SDS011;7393;51.446;6.800;2023-05-07T05:29:15;20.37;;;13.37;;
14613;SDS011;7393;51.446;6.800;2023-05-07T05:31:42;15.70;;;12.90;;
14613;SDS011;7393;51.446;6.800;2023-05-07T05:34:09;14.87;;;13.27;;
14613;SDS011;7393;51.446;6.800;2023-05-07T05:36:37;13.07;;;11.73;;
14613;SDS011;7393;51.446;6.800;2023-05-07T05:39:04;16.40;;;13.07;;
14613;SDS011;7393;51.446;6.800;2023-05-07T05:41:31;14.47;;;12.97;;
14613;SDS011;7393;51.446;6.800;2023-05-07T05:43:58;15.77;;;13.03;;
14613;SDS011;7393;51.446;6.800;2023-05-07T05:46:24;16.07;;;13.10;;
14613;SDS011;7393;51.446;6.800;2023-05-07T05:48:51;14.90;;;13.10;;
14613;SDS011;7393;51.446;6.800;2023-05-07T05:51:18;14.13;;;12.17;;
14613;SDS011;7393;51.446;6.800;2023-05-07T05:53:46;14.57;;;13.17;;
14613;SDS011;7393;51.446;6.800;2023-05-07T05:56:13;14.97;;;12.60;;
14613;SDS011;7393;51.446;6.800;2023-05-07T05:58:40;15.13;;;13.53;;
14613;SDS011;7393;51.446;6.800;2023-05-07T06:01:07;13.10;;;11.73;;
14613;SDS011;7393;51.446;6.800;2023-05-07T06:03:34;11.80;;;10.57;;
14613;SDS011;7393;51.446;6.800;2023-05-07T06:06:01;12.67;;;11.37;;
14613;SDS011;7393;51.446;6.800;2023-05-07T06:08:29;12.33;;;11.03;;
14613;SDS011;7393;51.446;6.800;2023-05-07T06:10:57;14.73;;;11.60;;
14613;SDS011;7393;51.446;6.800;2023-05-07T06:13:25;13.03;;;11.60;;
14613;SDS011;7393;51.446;6.800;2023-05-07T06:15:52;13.23;;;10.73;;
14613;SDS011;7393;51.446;6.800;2023-05-07T06:18:18;11.37;;;10.17;;
14613;SDS011;7393;51.446;6.800;2023-05-07T06:20:45;11.50;;;9.73;;
14613;SDS011;7393;51.446;6.800;2023-05-07T06:23:12;12.00;;;9.43;;
14613;SDS011;7393;51.446;6.800;2023-05-07T06:25:40;11.60;;;9.50;;
14613;SDS011;7393;51.446;6.800;2023-05-07T06:28:08;10.43;;;8.53;;
14613;SDS011;7393;51.446;6.800;2023-05-07T06:30:36;11.33;;;8.50;;
14613;SDS011;7393;51.446;6.800;2023-05-07T06:33:03;10.20;;;7.83;;
14613;SDS011;7393;51.446;6.800;2023-05-07T06:35:29;11.00;;;7.30;;
14613;SDS011;7393;51.446;6.800;2023-05-07T06:37:56;7.27;;;6.57;;
14613;SDS011;7393;51.446;6.800;2023-05-07T06:40:23;7.43;;;6.73;;
14613;SDS011;7393;51.446;6.800;2023-05-07T06:42:50;7.20;;;6.07;;
14613;SDS011;7393;51.446;6.800;2023-05-07T06:45:18;8.63;;;6.33;;
14613;SDS011;7393;51.446;6.800;2023-05-07T06:47:45;7.17;;;6.30;;
14613;SDS011;7393;51.446;6.800;2023-05-07T06:50:12;7.97;;;5.53;;
14613;SDS011;7393;51.446;6.800;2023-05-07T06:52:41;8.03;;;6.30;;
14613;SDS011;7393;51.446;6.800;2023-05-07T06:55:08;6.83;;;5.87;;
14613;SDS011;7393;51.446;6.800;2023-05-07T06:57:36;7.50;;;5.60;;
14613;SDS011;7393;51.446;6.800;2023-05-07T07:00:04;6.30;;;5.57;;
14613;SDS011;7393;51.446;6.800;2023-05-07T07:02:35;5.77;;;5.23;;
14613;SDS011;7393;51.446;6.800;2023-05-07T07:05:02;6.10;;;5.50;;
14613;SDS011;7393;51.446;6.800;2023-05-07T07:07:29;6.23;;;5.23;;
14613;SDS011;7393;51.446;6.800;2023-05-07T07:09:56;5.77;;;4.93;;
14613;SDS011;7393;51.446;6.800;2023-05-07T07:12:23;6.73;;;5.23;;
14613;SDS011;7393;51.446;6.800;2023-05-07T07:14:51;6.83;;;5.00;;
14613;SDS011;7393;51.446;6.800;2023-05-07T07:17:17;5.33;;;4.83;;
14613;SDS011;7393;51.446;6.800;2023-05-07T07:19:45;7.07;;;4.67;;
14613;SDS011;7393;51.446;6.800;2023-05-07T07:22:12;7.23;;;5.27;;
14613;SDS011;7393;51.446;6.800;2023-05-07T07:24:39;7.47;;;4.83;;
14613;SDS011;7393;51.446;6.800;2023-05-07T07:27:06;5.50;;;4.80;;
14613;SDS011;7393;51.446;6.800;2023-05-07T07:29:32;6.17;;;5.13;;
14613;SDS011;7393;51.446;6.800;2023-05-07T07:31:59;5.40;;;4.70;;
14613;SDS011;7393;51.446;6.800;2023-05-07T07:34:26;6.10;;;4.90;;
14613;SDS011;7393;51.446;6.800;2023-05-07T07:36:54;5.20;;;4.70;;
14613;SDS011;7393;51.446;6.800;2023-05-07T07:39:21;6.07;;;4.13;;
14613;SDS011;7393;51.446;6.800;2023-05-07T07:41:48;5.37;;;4.27;;
14613;SDS011;7393;51.446;6.800;2023-05-07T07:44:15;5.03;;;4.53;;
14613;SDS011;7393;51.446;6.800;2023-05-07T07:46:42;6.83;;;4.77;;
14613;SDS011;7393;51.446;6.800;2023-05-07T07:49:09;4.33;;;3.93;;
14613;SDS011;7393;51.446;6.800;2023-05-07T07:51:35;5.13;;;4.33;;
14613;SDS011;7393;51.446;6.800;2023-05-07T07:54:04;4.50;;;3.90;;
14613;SDS011;7393;51.446;6.800;2023-05-07T07:56:31;5.30;;;3.77;;
14613;SDS011;7393;51.446;6.800;2023-05-07T07:58:58;4.10;;;3.63;;
14613;SDS011;7393;51.446;6.800;2023-05-07T08:01:25;4.43;;;3.73;;
14613;SDS011;7393;51.446;6.800;2023-05-07T08:03:52;5.27;;;3.57;;
14613;SDS011;7393;51.446;6.800;2023-05-07T08:06:19;4.03;;;3.20;;
14613;SDS011;7393;51.446;6.800;2023-05-07T08:08:45;5.13;;;3.63;;
14613;SDS011;7393;51.446;6.800;2023-05-07T08:11:14;4.23;;;3.27;;
14613;SDS011;7393;51.446;6.800;2023-05-07T08:13:40;10.07;;;3.17;;
14613;SDS011;7393;51.446;6.800;2023-05-07T08:16:07;4.33;;;3.40;;
14613;SDS011;7393;51.446;6.800;2023-05-07T08:18:34;5.17;;;3.40;;
14613;SDS011;7393;51.446;6.800;2023-05-07T08:21:01;5.20;;;3.27;;
14613;SDS011;7393;51.446;6.800;2023-05-07T08:23:28;5.20;;;3.10;;
14613;SDS011;7393;51.446;6.800;2023-05-07T08:25:55;4.60;;;2.90;;
14613;SDS011;7393;51.446;6.800;2023-05-07T08:28:23;6.07;;;3.60;;
14613;SDS011;7393;51.446;6.800;2023-05-07T08:30:50;5.00;;;3.67;;
14613;SDS011;7393;51.446;6.800;2023-05-07T08:33:17;3.67;;;2.20;;
14613;SDS011;7393;51.446;6.800;2023-05-07T08:35:44;4.73;;;2.93;;
14613;SDS011;7393;51.446;6.800;2023-05-07T08:38:10;4.43;;;2.43;;
14613;SDS011;7393;51.446;6.800;2023-05-07T08:40:38;3.33;;;2.33;;
14613;SDS011;7393;51.446;6.800;2023-05-07T08:43:06;2.53;;;2.27;;
14613;SDS011;7393;51.446;6.800;2023-05-07T08:45:34;3.23;;;2.50;;
14613;SDS011;7393;51.446;6.800;2023-05-07T08:48:02;4.43;;;2.50;;
14613;SDS011;7393;51.446;6.800;2023-05-07T08:50:31;3.00;;;2.50;;
14613;SDS011;7393;51.446;6.800;2023-05-07T08:53:02;6.70;;;3.67;;
14613;SDS011;7393;51.446;6.800;2023-05-07T08:55:29;4.43;;;2.40;;
14613;SDS011;7393;51.446;6.800;2023-05-07T08:57:56;2.53;;;2.20;;
14613;SDS011;7393;51.446;6.800;2023-05-07T09:00:22;2.97;;;2.43;;
14613;SDS011;7393;51.446;6.800;2023-05-07T09:02:51;3.03;;;2.30;;
14613;SDS011;7393;51.446;6.800;2023-05-07T09:05:18;2.93;;;2.17;;
14613;SDS011;7393;51.446;6.800;2023-05-07T09:07:45;2.43;;;2.23;;
14613;SDS011;7393;51.446;6.800;2023-05-07T09:10:12;3.30;;;2.00;;
14613;SDS011;7393;51.446;6.800;2023-05-07T09:12:39;2.03;;;1.80;;
14613;SDS011;7393;51.446;6.800;2023-05-07T09:15:07;3.07;;;1.97;;
14613;SDS011;7393;51.446;6.800;2023-05-07T09:17:34;3.63;;;1.90;;
14613;SDS011;7393;51.446;6.800;2023-05-07T09:20:06;2.40;;;2.10;;
14613;SDS011;7393;51.446;6.800;2023-05-07T09:22:33;2.93;;;1.70;;
14613;SDS011;7393;51.446;6.800;2023-05-07T09:25:02;1.90;;;1.70;;
14613;SDS011;7393;51.446;6.800;2023-05-07T09:27:29;1.93;;;1.67;;
14613;SDS011;7393;51.446;6.800;2023-05-07T09:29:56;3.33;;;2.00;;
14613;SDS011;7393;51.446;6.800;2023-05-07T09:32:24;2.27;;;1.73;;
14613;SDS011;7393;51.446;6.800;2023-05-07T09:34:52;3.13;;;1.83;;
14613;SDS011;7393;51.446;6.800;2023-05-07T09:37:21;3.20;;;2.13;;
14613;SDS011;7393;51.446;6.800;2023-05-07T09:39:48;2.20;;;1.70;;
14613;SDS011;7393;51.446;6.800;2023-05-07T09:42:16;2.07;;;1.80;;
14613;SDS011;7393;51.446;6.800;2023-05-07T09:44:49;2.53;;;1.70;;
14613;SDS011;7393;51.446;6.800;2023-05-07T09:47:18;3.20;;;1.70;;
14613;SDS011;7393;51.446;6.800;2023-05-07T09:49:47;2.10;;;1.57;;
14613;SDS011;7393;51.446;6.800;2023-05-07T09:52:15;2.63;;;1.50;;
14613;SDS011;7393;51.446;6.800;2023-05-07T09:54:45;1.53;;;1.40;;
14613;SDS011;7393;51.446;6.800;2023-05-07T09:57:14;2.80;;;1.43;;
14613;SDS011;7393;51.446;6.800;2023-05-07T09:59:43;2.50;;;1.33;;
14613;SDS011;7393;51.446;6.800;2023-05-07T10:02:11;5.87;;;1.70;;
14613;SDS011;7393;51.446;6.800;2023-05-07T10:04:40;1.63;;;1.50;;
14613;SDS011;7393;51.446;6.800;2023-05-07T10:07:07;3.17;;;1.47;;
14613;SDS011;7393;51.446;6.800;2023-05-07T10:09:35;1.60;;;1.33;;
14613;SDS011;7393;51.446;6.800;2023-05-07T10:12:05;2.93;;;1.50;;
14613;SDS011;7393;51.446;6.800;2023-05-07T10:14:32;2.07;;;1.40;;
14613;SDS011;7393;51.446;6.800;2023-05-07T10:16:59;1.80;;;1.30;;
14613;SDS011;7393;51.446;6.800;2023-05-07T10:19:27;2.50;;;1.30;;
14613;SDS011;7393;51.446;6.800;2023-05-07T10:21:56;2.10;;;1.50;;
14613;SDS011;7393;51.446;6.800;2023-05-07T10:24:29;1.93;;;1.40;;
14613;SDS011;7393;51.446;6.800;2023-05-07T10:26:59;1.70;;;1.60;;
14613;SDS011;7393;51.446;6.800;2023-05-07T10:29:32;2.43;;;1.87;;
14613;SDS011;7393;51.446;6.800;2023-05-07T10:32:19;5.47;;;1.93;;
14613;SDS011;7393;51.446;6.800;2023-05-07T10:35:02;3.07;;;2.47;;
14613;SDS011;7393;51.446;6.800;2023-05-07T10:37:32;3.67;;;1.80;;
14613;SDS011;7393;51.446;6.800;2023-05-07T10:40:00;2.20;;;1.90;;
14613;SDS011;7393;51.446;6.800;2023-05-07T10:42:27;2.10;;;1.77;;
14613;SDS011;7393;51.446;6.800;2023-05-07T10:44:55;2.90;;;1.90;;
14613;SDS011;7393;51.446;6.800;2023-05-07T10:47:22;2.60;;;1.60;;
14613;SDS011;7393;51.446;6.800;2023-05-07T10:55:48;2.90;;;1.80;;
14613;SDS011;7393;51.446;6.800;2023-05-07T10:58:25;2.67;;;1.70;;
14613;SDS011;7393;51.446;6.800;2023-05-07T11:00:56;3.57;;;1.80;;
14613;SDS011;7393;51.446;6.800;2023-05-07T11:03:24;2.33;;;2.00;;
14613;SDS011;7393;51.446;6.800;2023-05-07T11:08:52;3.73;;;2.10;;
14613;SDS011;7393;51.446;6.800;2023-05-07T11:11:20;2.20;;;1.80;;
14613;SDS011;7393;51.446;6.800;2023-05-07T11:14:10;2.63;;;1.77;;
14613;SDS011;7393;51.446;6.800;2023-05-07T11:16:39;2.30;;;2.07;;
14613;SDS011;7393;51.446;6.800;2023-05-07T11:19:07;2.90;;;1.70;;
14613;SDS011;7393;51.446;6.800;2023-05-07T11:21:35;2.00;;;1.80;;
14613;SDS011;7393;51.446;6.800;2023-05-07T11:24:02;3.60;;;1.80;;
14613;SDS011;7393;51.446;6.800;2023-05-07T11:26:31;2.27;;;1.87;;
14613;SDS011;7393;51.446;6.800;2023-05-07T11:29:10;2.70;;;2.00;;
14613;SDS011;7393;51.446;6.800;2023-05-07T11:31:39;3.00;;;1.93;;
14613;SDS011;7393;51.446;6.800;2023-05-07T11:34:06;1.90;;;1.70;;
14613;SDS011;7393;51.446;6.800;2023-05-07T11:36:33;2.10;;;1.70;;
14613;SDS011;7393;51.446;6.800;2023-05-07T11:39:00;2.07;;;1.87;;
14613;SDS011;7393;51.446;6.800;2023-05-07T11:41:36;2.57;;;2.03;;
14613;SDS011;7393;51.446;6.800;2023-05-07T11:44:03;2.47;;;2.27;;
14613;SDS011;7393;51.446;6.800;2023-05-07T11:46:30;2.47;;;1.77;;
14613;SDS011;7393;51.446;6.800;2023-05-07T11:49:00;2.43;;;2.07;;
14613;SDS011;7393;51.446;6.800;2023-05-07T11:51:27;2.40;;;1.70;;
14613;SDS011;7393;51.446;6.800;2023-05-07T11:53:54;1.90;;;1.67;;
14613;SDS011;7393;51.446;6.800;2023-05-07T11:56:20;3.27;;;2.03;;
14613;SDS011;7393;51.446;6.800;2023-05-07T11:58:47;2.67;;;2.17;;
14613;SDS011;7393;51.446;6.800;2023-05-07T12:01:16;2.30;;;2.10;;
14613;SDS011;7393;51.446;6.800;2023-05-07T12:03:44;1.97;;;1.70;;
14613;SDS011;7393;51.446;6.800;2023-05-07T12:06:13;2.60;;;2.07;;
14613;SDS011;7393;51.446;6.800;2023-05-07T12:08:41;2.93;;;2.00;;
14613;SDS011;7393;51.446;6.800;2023-05-07T12:11:10;2.53;;;2.33;;
14613;SDS011;7393;51.446;6.800;2023-05-07T12:13:41;4.03;;;2.10;;
14613;SDS011;7393;51.446;6.800;2023-05-07T12:16:09;4.20;;;1.97;;
14613;SDS011;7393;51.446;6.800;2023-05-07T12:18:36;5.23;;;2.27;;
14613;SDS011;7393;51.446;6.800;2023-05-07T12:21:04;4.53;;;2.20;;
14613;SDS011;7393;51.446;6.800;2023-05-07T12:23:34;4.17;;;1.70;;
14613;SDS011;7393;51.446;6.800;2023-05-07T12:26:02;3.80;;;1.93;;
14613;SDS011;7393;51.446;6.800;2023-05-07T12:28:30;5.80;;;2.03;;
14613;SDS011;7393;51.446;6.800;2023-05-07T12:31:01;2.03;;;1.40;;
14613;SDS011;7393;51.446;6.800;2023-05-07T12:33:28;3.97;;;1.70;;
14613;SDS011;7393;51.446;6.800;2023-05-07T12:35:56;2.23;;;1.50;;
14613;SDS011;7393;51.446;6.800;2023-05-07T12:38:23;2.50;;;1.57;;
14613;SDS011;7393;51.446;6.800;2023-05-07T12:40:53;3.67;;;1.87;;
14613;SDS011;7393;51.446;6.800;2023-05-07T12:43:21;3.80;;;2.20;;
14613;SDS011;7393;51.446;6.800;2023-05-07T12:45:50;3.30;;;1.90;;
14613;SDS011;7393;51.446;6.800;2023-05-07T12:48:19;3.03;;;1.80;;
14613;SDS011;7393;51.446;6.800;2023-05-07T12:50:48;2.63;;;1.90;;
14613;SDS011;7393;51.446;6.800;2023-05-07T12:53:15;2.53;;;2.00;;
14613;SDS011;7393;51.446;6.800;2023-05-07T12:55:43;2.83;;;1.90;;
14613;SDS011;7393;51.446;6.800;2023-05-07T12:58:15;3.67;;;1.77;;
14613;SDS011;7393;51.446;6.800;2023-05-07T13:00:43;4.47;;;1.93;;
14613;SDS011;7393;51.446;6.800;2023-05-07T13:03:11;2.33;;;2.10;;
14613;SDS011;7393;51.446;6.800;2023-05-07T13:05:37;6.07;;;2.80;;
14613;SDS011;7393;51.446;6.800;2023-05-07T13:08:05;3.50;;;2.20;;
14613;SDS011;7393;51.446;6.800;2023-05-07T13:10:34;3.17;;;2.10;;
14613;SDS011;7393;51.446;6.800;2023-05-07T13:13:01;2.93;;;2.20;;
14613;SDS011;7393;51.446;6.800;2023-05-07T13:15:30;2.20;;;2.00;;
14613;SDS011;7393;51.446;6.800;2023-05-07T13:17:56;3.27;;;2.20;;
14613;SDS011;7393;51.446;6.800;2023-05-07T13:20:23;2.83;;;2.23;;
14613;SDS011;7393;51.446;6.800;2023-05-07T13:22:50;3.20;;;2.47;;
14613;SDS011;7393;51.446;6.800;2023-05-07T13:25:17;3.57;;;2.43;;
14613;SDS011;7393;51.446;6.800;2023-05-07T13:27:44;2.30;;;2.10;;
14613;SDS011;7393;51.446;6.800;2023-05-07T13:30:11;4.43;;;2.77;;
14613;SDS011;7393;51.446;6.800;2023-05-07T13:32:39;5.37;;;3.10;;
14613;SDS011;7393;51.446;6.800;2023-05-07T13:35:06;3.00;;;2.63;;
14613;SDS011;7393;51.446;6.800;2023-05-07T13:37:34;4.00;;;2.77;;
14613;SDS011;7393;51.446;6.800;2023-05-07T13:40:01;3.80;;;2.93;;
14613;SDS011;7393;51.446;6.800;2023-05-07T13:42:28;4.07;;;3.10;;
14613;SDS011;7393;51.446;6.800;2023-05-07T13:44:55;5.07;;;3.40;;
14613;SDS011;7393;51.446;6.800;2023-05-07T13:47:22;8.23;;;3.80;;
14613;SDS011;7393;51.446;6.800;2023-05-07T13:49:51;5.50;;;3.30;;
14613;SDS011;7393;51.446;6.800;2023-05-07T13:52:17;4.70;;;3.30;;
14613;SDS011;7393;51.446;6.800;2023-05-07T13:54:45;5.93;;;3.40;;
14613;SDS011;7393;51.446;6.800;2023-05-07T13:57:12;4.73;;;3.40;;
14613;SDS011;7393;51.446;6.800;2023-05-07T13:59:38;4.17;;;3.30;;
14613;SDS011;7393;51.446;6.800;2023-05-07T14:02:05;4.57;;;3.63;;
14613;SDS011;7393;51.446;6.800;2023-05-07T14:04:32;7.00;;;4.10;;
14613;SDS011;7393;51.446;6.800;2023-05-07T14:07:01;6.63;;;4.13;;
14613;SDS011;7393;51.446;6.800;2023-05-07T14:09:27;6.40;;;3.83;;
14613;SDS011;7393;51.446;6.800;2023-05-07T14:11:54;5.13;;;3.87;;
14613;SDS011;7393;51.446;6.800;2023-05-07T14:14:21;5.63;;;3.90;;
14613;SDS011;7393;51.446;6.800;2023-05-07T14:16:48;5.03;;;3.60;;
14613;SDS011;7393;51.446;6.800;2023-05-07T14:19:14;8.27;;;4.00;;
14613;SDS011;7393;51.446;6.800;2023-05-07T14:21:41;6.67;;;4.37;;
14613;SDS011;7393;51.446;6.800;2023-05-07T14:24:09;4.20;;;3.80;;
14613;SDS011;7393;51.446;6.800;2023-05-07T14:26:36;4.80;;;4.00;;
14613;SDS011;7393;51.446;6.800;2023-05-07T14:29:03;5.53;;;4.33;;
14613;SDS011;7393;51.446;6.800;2023-05-07T14:31:30;5.40;;;4.00;;
14613;SDS011;7393;51.446;6.800;2023-05-07T14:33:57;5.67;;;3.83;;
14613;SDS011;7393;51.446;6.800;2023-05-07T14:36:24;5.53;;;3.80;;
14613;SDS011;7393;51.446;6.800;2023-05-07T14:38:52;4.33;;;3.47;;
14613;SDS011;7393;51.446;6.800;2023-05-07T14:41:21;9.43;;;4.60;;
14613;SDS011;7393;51.446;6.800;2023-05-07T14:43:48;7.20;;;4.33;;
14613;SDS011;7393;51.446;6.800;2023-05-07T14:46:16;4.13;;;3.57;;
14613;SDS011;7393;51.446;6.800;2023-05-07T14:48:43;4.67;;;3.67;;
14613;SDS011;7393;51.446;6.800;2023-05-07T14:51:11;4.70;;;3.80;;
14613;SDS011;7393;51.446;6.800;2023-05-07T14:53:38;4.00;;;3.60;;
14613;SDS011;7393;51.446;6.800;2023-05-07T14:56:05;5.80;;;3.70;;
14613;SDS011;7393;51.446;6.800;2023-05-07T14:58:33;5.70;;;3.80;;
14613;SDS011;7393;51.446;6.800;2023-05-07T15:01:00;4.40;;;4.00;;
14613;SDS011;7393;51.446;6.800;2023-05-07T15:03:27;6.30;;;3.80;;
14613;SDS011;7393;51.446;6.800;2023-05-07T15:05:54;5.77;;;4.20;;
14613;SDS011;7393;51.446;6.800;2023-05-07T15:08:21;6.03;;;4.30;;
14613;SDS011;7393;51.446;6.800;2023-05-07T15:10:48;4.67;;;4.17;;